createdAt,value
2023-01-29T00:01:22.424Z,-0.50
2023-01-29T00:03:50.527Z,-0.50
2023-01-29T00:06:17.073Z,-0.50
2023-01-29T00:08:44.288Z,-0.60
2023-01-29T00:11:10.795Z,-0.70
2023-01-29T00:13:37.329Z,-0.60
2023-01-29T00:16:04.236Z,-0.50
2023-01-29T00:18:31.306Z,-0.70
2023-01-29T00:20:57.852Z,-0.70
2023-01-29T00:23:25.011Z,-0.70
2023-01-29T00:25:51.572Z,-0.70
2023-01-29T00:28:18.206Z,-0.70
2023-01-29T00:30:44.811Z,-0.60
2023-01-29T00:33:13.315Z,-0.60
2023-01-29T00:35:40.375Z,-0.50
2023-01-29T00:38:06.967Z,-0.50
2023-01-29T00:40:56.497Z,-0.50
2023-01-29T00:43:42.090Z,-0.50
2023-01-29T00:46:08.747Z,-0.30
2023-01-29T00:48:35.524Z,-0.40
2023-01-29T00:51:02.903Z,-0.40
2023-01-29T00:53:29.919Z,-0.40
2023-01-29T00:55:56.591Z,-0.40
2023-01-29T00:58:28.310Z,-0.50
2023-01-29T01:00:56.024Z,-0.60
2023-01-29T01:03:22.660Z,-0.60
2023-01-29T01:05:49.234Z,-0.60
2023-01-29T01:08:34.763Z,-0.70
2023-01-29T01:11:02.534Z,-0.60
2023-01-29T01:13:29.318Z,-0.60
2023-01-29T01:15:55.864Z,-0.70
2023-01-29T01:18:22.870Z,-0.60
2023-01-29T01:20:51.588Z,-0.70
2023-01-29T01:23:19.281Z,-0.60
2023-01-29T01:25:46.478Z,-0.70
2023-01-29T01:28:13.040Z,-0.70
2023-01-29T01:30:39.636Z,-0.90
2023-01-29T01:33:06.223Z,-0.90
2023-01-29T01:35:32.918Z,-0.90
2023-01-29T01:37:59.478Z,-1.00
2023-01-29T01:40:26.139Z,-1.00
2023-01-29T01:42:57.096Z,-0.90
2023-01-29T01:45:24.310Z,-0.90
2023-01-29T01:47:52.718Z,-0.90
2023-01-29T01:50:21.963Z,-1.00
2023-01-29T01:52:50.963Z,-1.10
2023-01-29T01:55:19.440Z,-1.00
2023-01-29T01:57:47.367Z,-1.00
2023-01-29T02:00:15.776Z,-1.00
2023-01-29T02:03:02.819Z,-1.10
2023-01-29T02:05:48.919Z,-1.20
2023-01-29T02:08:35.124Z,-1.30
2023-01-29T02:11:01.642Z,-1.30
2023-01-29T02:13:28.219Z,-1.20
2023-01-29T02:15:54.751Z,-1.20
2023-01-29T02:18:21.499Z,-1.20
2023-01-29T02:21:13.518Z,-1.30
2023-01-29T02:23:43.110Z,-1.20
2023-01-29T02:29:38.127Z,-1.30
2023-01-29T02:32:09.584Z,-1.20
2023-01-29T02:35:09.908Z,-1.30
2023-01-29T02:37:39.105Z,-1.40
2023-01-29T02:40:15.917Z,-1.40
2023-01-29T02:43:18.246Z,-1.40
2023-01-29T02:45:47.932Z,-1.40
2023-01-29T02:48:18.257Z,-1.30
2023-01-29T02:50:49.158Z,-1.30
2023-01-29T02:53:17.106Z,-1.40
2023-01-29T02:55:54.994Z,-1.40
2023-01-29T02:58:27.973Z,-1.40
2023-01-29T03:00:56.256Z,-1.40
2023-01-29T03:03:28.540Z,-1.50
2023-01-29T03:05:59.893Z,-1.50
2023-01-29T03:08:37.370Z,-1.50
2023-01-29T03:11:05.613Z,-1.40
2023-01-29T03:13:36.825Z,-1.40
2023-01-29T03:16:16.124Z,-1.40
2023-01-29T03:18:46.384Z,-1.50
2023-01-29T03:21:35.737Z,-1.40
2023-01-29T03:24:22.248Z,-1.40
2023-01-29T03:27:07.378Z,-1.60
2023-01-29T03:29:52.704Z,-1.70
2023-01-29T03:32:19.942Z,-1.60
2023-01-29T03:34:51.927Z,-1.70
2023-01-29T03:37:26.012Z,-1.60
2023-01-29T03:39:52.620Z,-1.70
2023-01-29T03:42:25.617Z,-1.80
2023-01-29T03:44:55.098Z,-1.90
2023-01-29T03:47:27.116Z,-1.90
2023-01-29T03:50:04.329Z,-1.90
2023-01-29T03:52:46.084Z,-1.90
2023-01-29T03:55:32.315Z,-1.90
2023-01-29T03:58:04.863Z,-1.90
2023-01-29T04:00:42.753Z,-1.90
2023-01-29T04:03:29.630Z,-1.90
2023-01-29T04:06:05.465Z,-1.90
2023-01-29T04:08:33.984Z,-1.90
2023-01-29T04:11:03.230Z,-2.00
2023-01-29T04:13:31.448Z,-2.10
2023-01-29T04:15:59.374Z,-2.10
2023-01-29T04:18:25.952Z,-2.10
2023-01-29T04:20:52.767Z,-2.20
2023-01-29T04:23:23.725Z,-2.20
2023-01-29T04:25:59.309Z,-2.30
2023-01-29T04:28:36.427Z,-2.30
2023-01-29T04:31:06.668Z,-2.30
2023-01-29T04:33:42.143Z,-2.30
2023-01-29T04:36:18.021Z,-2.30
2023-01-29T04:38:56.741Z,-2.20
2023-01-29T04:41:33.106Z,-2.20
2023-01-29T04:44:10.832Z,-2.20
2023-01-29T04:46:46.857Z,-2.20
2023-01-29T04:49:18.425Z,-2.20
2023-01-29T04:51:50.724Z,-2.20
2023-01-29T04:54:25.740Z,-2.20
2023-01-29T04:57:05.572Z,-2.20
2023-01-29T04:59:52.445Z,-2.20
2023-01-29T05:02:19.288Z,-2.20
2023-01-29T05:04:46.437Z,-2.10
2023-01-29T05:07:14.355Z,-2.10
2023-01-29T05:09:42.778Z,-2.10
2023-01-29T05:12:09.909Z,-2.10
2023-01-29T05:14:37.785Z,-2.00
2023-01-29T05:17:08.453Z,-2.10
2023-01-29T05:19:34.993Z,-2.00
2023-01-29T05:22:04.194Z,-2.10
2023-01-29T05:24:30.850Z,-2.10
2023-01-29T05:27:16.375Z,-2.20
2023-01-29T05:29:45.317Z,-2.10
2023-01-29T05:32:12.072Z,-2.10
2023-01-29T05:34:38.613Z,-2.10
2023-01-29T05:37:05.168Z,-2.00
2023-01-29T05:39:31.677Z,-1.90
2023-01-29T05:41:58.328Z,-2.00
2023-01-29T05:44:24.937Z,-1.90
2023-01-29T05:46:51.582Z,-2.00
2023-01-29T05:49:18.441Z,-2.10
2023-01-29T05:51:45.180Z,-2.20
2023-01-29T05:54:12.549Z,-2.10
2023-01-29T05:56:39.701Z,-2.20
2023-01-29T05:59:07.329Z,-2.20
2023-01-29T06:01:33.862Z,-2.30
2023-01-29T06:04:00.517Z,-2.40
2023-01-29T06:06:27.003Z,-2.50
2023-01-29T06:08:53.625Z,-2.60
2023-01-29T06:11:20.600Z,-2.60
2023-01-29T06:13:47.829Z,-2.60
2023-01-29T06:16:14.840Z,-2.50
2023-01-29T06:18:41.888Z,-2.60
2023-01-29T06:21:10.145Z,-2.50
2023-01-29T06:23:36.698Z,-2.50
2023-01-29T06:26:04.730Z,-2.50
2023-01-29T06:28:31.532Z,-2.40
2023-01-29T06:31:08.230Z,-2.50
2023-01-29T06:33:43.053Z,-2.50
2023-01-29T06:36:09.801Z,-2.60
2023-01-29T06:38:36.312Z,-2.70
2023-01-29T06:41:12.862Z,-2.70
2023-01-29T06:43:39.433Z,-2.80
2023-01-29T06:46:07.618Z,-2.80
2023-01-29T06:48:34.115Z,-2.80
2023-01-29T06:51:04.683Z,-2.80
2023-01-29T06:53:31.779Z,-2.80
2023-01-29T06:55:58.470Z,-2.80
2023-01-29T06:58:25.012Z,-2.80
2023-01-29T07:00:51.756Z,-2.70
2023-01-29T07:03:18.627Z,-2.70
2023-01-29T07:05:52.369Z,-2.80
2023-01-29T07:08:19.205Z,-2.80
2023-01-29T07:10:45.698Z,-2.80
2023-01-29T07:13:12.203Z,-2.90
2023-01-29T07:15:38.706Z,-2.90
2023-01-29T07:18:11.878Z,-2.90
2023-01-29T07:20:42.214Z,-2.80
2023-01-29T07:23:10.656Z,-2.80
2023-01-29T07:25:37.413Z,-2.80
2023-01-29T07:28:04.035Z,-2.70
2023-01-29T07:30:30.993Z,-2.80
2023-01-29T07:33:07.368Z,-2.80
2023-01-29T07:35:40.544Z,-2.70
2023-01-29T07:38:07.951Z,-2.60
2023-01-29T07:40:34.483Z,-2.50
2023-01-29T07:43:01.701Z,-2.40
2023-01-29T07:45:29.061Z,-2.40
2023-01-29T07:47:55.932Z,-2.30
2023-01-29T07:50:23.359Z,-2.30
2023-01-29T07:52:50.180Z,-2.20
2023-01-29T07:55:16.972Z,-2.10
2023-01-29T07:57:43.936Z,-1.90
2023-01-29T08:00:11.505Z,-1.80
2023-01-29T08:02:38.163Z,-1.70
2023-01-29T08:05:04.865Z,-1.60
2023-01-29T08:07:31.376Z,-1.60
2023-01-29T08:09:57.944Z,-1.50
2023-01-29T08:12:24.485Z,-1.40
2023-01-29T08:14:51.155Z,-1.30
2023-01-29T08:17:17.635Z,-1.20
2023-01-29T08:19:44.140Z,-1.10
2023-01-29T08:22:10.658Z,-1.10
2023-01-29T08:24:53.214Z,-1.00
2023-01-29T08:27:20.730Z,-1.00
2023-01-29T08:29:47.438Z,-0.90
2023-01-29T08:32:14.014Z,-0.90
2023-01-29T08:34:40.971Z,-1.00
2023-01-29T08:37:07.492Z,-1.00
2023-01-29T08:39:34.659Z,-1.00
2023-01-29T08:42:01.194Z,-0.80
2023-01-29T08:44:27.698Z,-0.80
2023-01-29T08:46:54.340Z,-0.80
2023-01-29T08:49:20.826Z,-0.70
2023-01-29T08:51:47.585Z,-0.70
2023-01-29T08:54:14.140Z,-0.70
2023-01-29T08:56:40.629Z,-0.70
2023-01-29T08:59:07.183Z,-0.70
2023-01-29T09:01:33.762Z,-0.70
2023-01-29T09:04:00.332Z,-0.70
2023-01-29T09:06:27.160Z,-0.60
2023-01-29T09:08:54.003Z,-0.60
2023-01-29T09:11:20.521Z,-0.40
2023-01-29T09:13:47.172Z,-0.50
2023-01-29T09:16:13.783Z,-0.40
2023-01-29T09:18:40.351Z,-0.40
2023-01-29T09:21:06.915Z,-0.50
2023-01-29T09:23:33.501Z,-0.40
2023-01-29T09:26:00.123Z,-0.40
2023-01-29T09:28:26.715Z,-0.30
2023-01-29T09:30:53.360Z,-0.40
2023-01-29T09:33:19.900Z,-0.40
2023-01-29T09:35:47.149Z,-0.40
2023-01-29T09:38:13.849Z,-0.40
2023-01-29T09:40:58.948Z,-0.30
2023-01-29T09:43:48.932Z,-0.40
2023-01-29T09:46:33.471Z,-0.40
2023-01-29T09:49:12.996Z,-0.50
2023-01-29T09:51:41.003Z,-0.50
2023-01-29T09:54:10.346Z,-0.50
2023-01-29T09:56:36.867Z,-0.30
2023-01-29T09:59:03.395Z,-0.30
2023-01-29T10:01:36.137Z,-0.20
2023-01-29T10:04:21.253Z,-0.20
2023-01-29T10:07:03.103Z,-0.10
2023-01-29T10:09:49.590Z,-0.10
2023-01-29T10:12:39.463Z,-0.20
2023-01-29T10:15:24.690Z,-0.20
2023-01-29T10:18:06.627Z,-0.20
2023-01-29T10:20:47.061Z,0.00
2023-01-29T10:23:20.998Z,0.00
2023-01-29T10:25:48.077Z,0.20
2023-01-29T10:28:19.660Z,0.20
2023-01-29T10:30:51.076Z,0.40
2023-01-29T10:33:49.491Z,0.40
2023-01-29T10:36:31.982Z,0.50
2023-01-29T10:38:58.754Z,0.50
2023-01-29T10:41:28.202Z,0.50
2023-01-29T10:44:01.397Z,0.60
2023-01-29T10:46:33.870Z,0.70
2023-01-29T10:49:06.847Z,0.80
2023-01-29T10:51:52.272Z,0.80
2023-01-29T10:54:33.055Z,0.80
2023-01-29T10:56:59.638Z,0.70
2023-01-29T10:59:42.820Z,0.90
2023-01-29T11:02:15.505Z,0.90
2023-01-29T11:04:42.013Z,0.80
2023-01-29T11:07:08.699Z,1.00
2023-01-29T11:09:50.070Z,1.00
2023-01-29T11:12:19.470Z,1.00
2023-01-29T11:14:47.587Z,1.10
2023-01-29T11:17:14.769Z,1.10
2023-01-29T11:19:43.125Z,1.20
2023-01-29T11:22:14.309Z,1.30
2023-01-29T11:24:40.848Z,1.20
2023-01-29T11:27:14.395Z,1.10
2023-01-29T11:29:42.918Z,1.00
2023-01-29T11:32:18.836Z,1.10
2023-01-29T11:34:58.871Z,1.10
2023-01-29T11:37:32.309Z,1.20
2023-01-29T11:39:58.814Z,1.10
2023-01-29T11:42:30.421Z,1.00
2023-01-29T11:44:56.974Z,1.00
2023-01-29T11:47:27.830Z,1.10
2023-01-29T11:49:55.684Z,1.10
2023-01-29T11:52:23.810Z,1.10
2023-01-29T11:54:52.772Z,1.10
2023-01-29T11:57:30.546Z,1.00
2023-01-29T11:59:59.474Z,0.80
2023-01-29T12:02:31.989Z,0.80
2023-01-29T12:05:04.516Z,0.80
2023-01-29T12:10:36.471Z,0.80
2023-01-29T12:13:21.103Z,0.90
2023-01-29T12:15:48.633Z,0.90
2023-01-29T12:18:32.623Z,1.10
2023-01-29T12:21:01.510Z,1.20
2023-01-29T12:23:35.498Z,1.20
2023-01-29T12:26:06.870Z,1.10
2023-01-29T12:28:39.451Z,1.00
2023-01-29T12:31:06.006Z,1.10
2023-01-29T12:33:42.542Z,1.10
2023-01-29T12:36:13.091Z,1.10
2023-01-29T12:38:41.090Z,1.10
2023-01-29T12:41:21.554Z,1.00
2023-01-29T12:43:49.601Z,1.10
2023-01-29T12:46:21.610Z,1.10
2023-01-29T12:48:49.288Z,1.10
2023-01-29T12:51:18.626Z,1.30
2023-01-29T12:53:49.941Z,1.30
2023-01-29T12:56:19.072Z,1.30
2023-01-29T12:58:47.417Z,1.30
2023-01-29T13:01:21.940Z,1.40
2023-01-29T13:04:10.066Z,1.30
2023-01-29T13:06:41.568Z,1.40
2023-01-29T13:09:11.744Z,1.30
2023-01-29T13:11:44.943Z,1.40
2023-01-29T13:14:14.508Z,1.50
2023-01-29T13:16:43.382Z,1.40
2023-01-29T13:19:18.600Z,1.50
2023-01-29T13:21:45.841Z,1.40
2023-01-29T13:24:15.257Z,1.40
2023-01-29T13:26:45.316Z,1.30
2023-01-29T13:29:22.652Z,1.20
2023-01-29T13:31:50.195Z,1.10
2023-01-29T13:34:21.274Z,1.20
2023-01-29T13:36:48.903Z,1.10
2023-01-29T13:39:37.560Z,1.10
2023-01-29T13:42:16.209Z,1.20
2023-01-29T13:44:47.056Z,1.40
2023-01-29T13:47:21.641Z,1.40
2023-01-29T13:50:07.591Z,1.40
2023-01-29T13:52:36.762Z,1.50
2023-01-29T13:55:05.488Z,1.40
2023-01-29T13:57:36.382Z,1.40
2023-01-29T14:00:03.351Z,1.30
2023-01-29T14:02:30.245Z,1.30
2023-01-29T14:05:15.950Z,1.30
2023-01-29T14:07:45.743Z,1.30
2023-01-29T14:10:14.332Z,1.20
2023-01-29T14:12:41.609Z,1.20
2023-01-29T14:15:19.014Z,1.20
2023-01-29T14:18:13.054Z,1.20
2023-01-29T14:20:48.641Z,1.20
2023-01-29T14:23:24.261Z,1.10
2023-01-29T14:25:51.157Z,1.10
2023-01-29T14:28:22.631Z,1.00
2023-01-29T14:30:49.617Z,0.90
2023-01-29T14:33:36.540Z,0.90
2023-01-29T14:36:04.572Z,0.80
2023-01-29T14:38:31.728Z,0.80
2023-01-29T14:41:08.999Z,0.60
2023-01-29T14:43:35.666Z,0.60
2023-01-29T14:46:25.516Z,0.50
2023-01-29T14:48:54.159Z,0.60
2023-01-29T14:51:22.376Z,0.40
2023-01-29T14:53:53.193Z,0.40
2023-01-29T14:56:34.037Z,0.40
2023-01-29T14:59:16.436Z,0.40
2023-01-29T15:01:54.597Z,0.40
2023-01-29T15:04:23.904Z,0.30
2023-01-29T15:06:54.848Z,0.30
2023-01-29T15:09:36.425Z,0.30
2023-01-29T15:12:16.813Z,0.40
2023-01-29T15:14:48.012Z,0.40
2023-01-29T15:17:23.588Z,0.50
2023-01-29T15:19:50.463Z,0.30
2023-01-29T15:22:18.287Z,0.30
2023-01-29T15:24:45.454Z,0.30
2023-01-29T15:27:16.692Z,0.30
2023-01-29T15:29:44.660Z,0.30
2023-01-29T15:32:15.500Z,0.30
2023-01-29T15:34:43.095Z,0.30
2023-01-29T15:37:24.447Z,0.30
2023-01-29T15:39:52.962Z,0.20
2023-01-29T15:42:25.580Z,0.20
2023-01-29T15:44:54.527Z,0.10
2023-01-29T15:47:26.628Z,0.10
2023-01-29T15:49:53.290Z,0.00
2023-01-29T15:52:25.773Z,-0.10
2023-01-29T15:54:52.877Z,-0.10
2023-01-29T15:57:21.524Z,0.00
2023-01-29T15:59:51.614Z,-0.10
2023-01-29T16:02:19.139Z,-0.10
2023-01-29T16:04:46.192Z,-0.20
2023-01-29T16:07:13.555Z,-0.30
2023-01-29T16:09:40.234Z,-0.20
2023-01-29T16:12:06.900Z,-0.10
2023-01-29T16:14:33.669Z,-0.10
2023-01-29T16:17:10.578Z,-0.20
2023-01-29T16:19:37.084Z,-0.20
2023-01-29T16:22:04.836Z,-0.20
2023-01-29T16:24:37.768Z,-0.20
2023-01-29T16:27:13.970Z,-0.30
2023-01-29T16:29:40.669Z,-0.20
2023-01-29T16:32:08.795Z,-0.30
2023-01-29T16:34:39.501Z,-0.40
2023-01-29T16:37:07.489Z,-0.40
2023-01-29T16:39:38.314Z,-0.30
2023-01-29T16:42:12.348Z,-0.30
2023-01-29T16:44:53.029Z,-0.40
2023-01-29T16:47:25.294Z,-0.50
2023-01-29T16:50:00.660Z,-0.60
2023-01-29T16:52:31.563Z,-0.60
2023-01-29T16:54:59.328Z,-0.60
2023-01-29T16:57:27.736Z,-0.60
2023-01-29T16:59:56.504Z,-0.60
2023-01-29T17:02:33.199Z,-0.80
2023-01-29T17:05:05.112Z,-0.90
2023-01-29T17:07:32.492Z,-1.00
2023-01-29T17:10:00.630Z,-0.90
2023-01-29T17:12:28.494Z,-1.00
2023-01-29T17:15:02.010Z,-1.10
2023-01-29T17:17:29.445Z,-1.10
2023-01-29T17:19:56.335Z,-1.10
2023-01-29T17:22:22.960Z,-1.20
2023-01-29T17:24:51.476Z,-1.30
2023-01-29T17:27:22.036Z,-1.30
2023-01-29T17:29:48.682Z,-1.40
2023-01-29T17:32:18.831Z,-1.40
2023-01-29T17:34:46.419Z,-1.30
2023-01-29T17:37:13.845Z,-1.30
2023-01-29T17:39:40.397Z,-1.30
2023-01-29T17:42:10.539Z,-1.30
2023-01-29T17:44:37.045Z,-1.10
2023-01-29T17:47:05.372Z,-1.10
2023-01-29T17:49:38.079Z,-1.00
2023-01-29T17:52:04.713Z,-1.00
2023-01-29T17:54:31.240Z,-0.90
2023-01-29T17:56:58.377Z,-1.00
2023-01-29T17:59:26.288Z,-1.00
2023-01-29T18:01:53.205Z,-1.00
2023-01-29T18:04:20.211Z,-0.90
2023-01-29T18:06:47.764Z,-0.90
2023-01-29T18:09:15.264Z,-0.80
2023-01-29T18:11:42.253Z,-0.90
2023-01-29T18:14:13.986Z,-0.90
2023-01-29T18:16:42.029Z,-0.80
2023-01-29T18:19:22.154Z,-0.90
2023-01-29T18:21:49.076Z,-0.90
2023-01-29T18:24:16.006Z,-0.80
2023-01-29T18:26:42.703Z,-0.80
2023-01-29T18:29:09.270Z,-0.80
2023-01-29T18:31:35.827Z,-0.80
2023-01-29T18:34:02.490Z,-0.90
2023-01-29T18:36:29.069Z,-0.90
2023-01-29T18:38:56.752Z,-1.00
2023-01-29T18:41:23.591Z,-1.00
2023-01-29T18:43:52.573Z,-1.00
2023-01-29T18:46:20.936Z,-1.00
2023-01-29T18:48:47.502Z,-1.00
2023-01-29T18:51:14.009Z,-0.90
2023-01-29T18:53:40.696Z,-0.80
2023-01-29T18:56:07.497Z,-0.70
2023-01-29T18:58:36.431Z,-0.70
2023-01-29T19:01:08.834Z,-0.60
2023-01-29T19:03:36.194Z,-0.70
2023-01-29T19:06:03.692Z,-0.70
2023-01-29T19:08:30.287Z,-0.70
2023-01-29T19:10:57.787Z,-0.60
2023-01-29T19:13:24.606Z,-0.60
2023-01-29T19:15:51.141Z,-0.60
2023-01-29T19:18:17.660Z,-0.60
2023-01-29T19:20:44.336Z,-0.80
2023-01-29T19:23:10.998Z,-0.80
2023-01-29T19:25:38.824Z,-0.80
2023-01-29T19:28:06.405Z,-0.80
2023-01-29T19:30:33.100Z,-0.90
2023-01-29T19:32:59.663Z,-1.10
2023-01-29T19:35:26.593Z,-1.10
2023-01-29T19:37:53.114Z,-1.10
2023-01-29T19:40:19.801Z,-1.20
2023-01-29T19:42:46.654Z,-1.30
2023-01-29T19:45:13.278Z,-1.40
2023-01-29T19:47:40.515Z,-1.30
2023-01-29T19:50:07.851Z,-1.30
2023-01-29T19:52:51.492Z,-1.20
2023-01-29T19:55:19.675Z,-1.30
2023-01-29T19:57:46.597Z,-1.50
2023-01-29T20:00:15.446Z,-1.50
2023-01-29T20:02:41.987Z,-1.70
2023-01-29T20:05:11.216Z,-1.70
2023-01-29T20:07:37.908Z,-1.80
2023-01-29T20:10:04.655Z,-1.80
2023-01-29T20:12:31.273Z,-1.80
2023-01-29T20:14:57.802Z,-1.80
2023-01-29T20:17:24.403Z,-1.70
2023-01-29T20:19:50.901Z,-1.70
2023-01-29T20:22:17.529Z,-1.70
2023-01-29T20:24:44.065Z,-1.70
2023-01-29T20:27:11.421Z,-1.80
2023-01-29T20:29:42.347Z,-1.80
2023-01-29T20:32:09.696Z,-1.80
2023-01-29T20:34:36.523Z,-1.70
2023-01-29T20:37:03.140Z,-1.70
2023-01-29T20:39:29.708Z,-1.80
2023-01-29T20:41:57.279Z,-1.80
2023-01-29T20:44:24.331Z,-1.70
2023-01-29T20:46:51.068Z,-1.80
2023-01-29T20:49:18.056Z,-1.90
2023-01-29T20:51:45.555Z,-1.80
2023-01-29T20:54:15.263Z,-1.70
2023-01-29T20:56:44.920Z,-1.70
2023-01-29T20:59:13.176Z,-1.70
2023-01-29T21:01:39.762Z,-1.70
2023-01-29T21:04:06.538Z,-1.70
2023-01-29T21:06:33.432Z,-1.80
2023-01-29T21:09:00.029Z,-1.70
2023-01-29T21:11:26.544Z,-1.80
2023-01-29T21:13:57.395Z,-1.70
2023-01-29T21:16:26.010Z,-1.60
2023-01-29T21:18:54.918Z,-1.60
2023-01-29T21:21:21.566Z,-1.70
2023-01-29T21:23:48.141Z,-1.70
2023-01-29T21:26:14.720Z,-1.80
2023-01-29T21:28:41.323Z,-1.80
2023-01-29T21:31:10.040Z,-1.80
2023-01-29T21:33:36.904Z,-1.80
2023-01-29T21:36:03.791Z,-1.70
2023-01-29T21:38:30.313Z,-1.80
2023-01-29T21:41:04.511Z,-1.80
2023-01-29T21:43:31.056Z,-1.90
2023-01-29T21:45:58.177Z,-1.90
2023-01-29T21:48:25.102Z,-1.70
2023-01-29T21:50:52.304Z,-1.80
2023-01-29T21:53:19.044Z,-1.80
2023-01-29T21:55:46.138Z,-1.70
2023-01-29T21:58:14.511Z,-1.60
2023-01-29T22:00:41.392Z,-1.60
2023-01-29T22:03:07.942Z,-1.60
2023-01-29T22:05:34.767Z,-1.60
2023-01-29T22:08:01.354Z,-1.70
2023-01-29T22:10:28.850Z,-1.60
2023-01-29T22:12:55.579Z,-1.60
2023-01-29T22:15:23.892Z,-1.50
2023-01-29T22:17:50.827Z,-1.50
2023-01-29T22:20:17.794Z,-1.50
2023-01-29T22:22:44.534Z,-1.40
2023-01-29T22:25:11.179Z,-1.40
2023-01-29T22:27:37.929Z,-1.40
2023-01-29T22:30:05.229Z,-1.40
2023-01-29T22:32:32.338Z,-1.30
2023-01-29T22:34:58.897Z,-1.40
2023-01-29T22:37:25.418Z,-1.40
2023-01-29T22:39:51.922Z,-1.40
2023-01-29T22:42:19.206Z,-1.30
2023-01-29T22:44:45.797Z,-1.30
2023-01-29T22:47:12.370Z,-1.30
2023-01-29T22:49:38.892Z,-1.20
2023-01-29T22:52:11.578Z,-1.10
2023-01-29T22:54:38.887Z,-1.20
2023-01-29T22:57:05.803Z,-1.20
2023-01-29T22:59:32.644Z,-1.20
2023-01-29T23:01:59.267Z,-1.30
2023-01-29T23:04:25.818Z,-1.30
2023-01-29T23:06:52.380Z,-1.20
2023-01-29T23:09:19.028Z,-1.30
2023-01-29T23:11:45.548Z,-1.30
2023-01-29T23:14:12.083Z,-1.20
2023-01-29T23:16:38.592Z,-1.20
2023-01-29T23:19:05.204Z,-1.20
2023-01-29T23:21:31.781Z,-1.10
2023-01-29T23:23:59.288Z,-1.10
2023-01-29T23:26:44.514Z,-1.20
2023-01-29T23:29:11.144Z,-1.30
2023-01-29T23:31:37.789Z,-1.40
2023-01-29T23:34:04.340Z,-1.40
2023-01-29T23:36:31.038Z,-1.40
2023-01-29T23:38:57.569Z,-1.40
2023-01-29T23:41:24.155Z,-1.50
2023-01-29T23:43:52.605Z,-1.50
2023-01-29T23:46:19.165Z,-1.40
2023-01-29T23:48:45.735Z,-1.30
2023-01-29T23:51:12.243Z,-1.30
2023-01-29T23:53:38.844Z,-1.10
2023-01-29T23:56:05.583Z,-1.10
2023-01-29T23:58:32.642Z,-1.10
